sensor_id;sensor_type;location;lat;lon;timestamp;P1;durP1;ratioP1;P2;durP2;ratioP2
47309;SDS011;33046;52.270;6.832;2024-03-23T00:53:50;23.80;;;5.68;;
47309;SDS011;33046;52.270;6.832;2024-03-23T00:55:56;18.92;;;5.70;;
47309;SDS011;33046;52.270;6.832;2024-03-23T00:58:01;24.33;;;7.13;;
47309;SDS011;33046;52.270;6.832;2024-03-23T01:00:08;19.50;;;4.50;;
47309;SDS011;33046;52.270;6.832;2024-03-23T01:02:14;24.15;;;7.60;;
47309;SDS011;33046;52.270;6.832;2024-03-23T01:04:20;17.42;;;5.18;;
47309;SDS011;33046;52.270;6.832;2024-03-23T01:06:26;15.00;;;4.70;;
47309;SDS011;33046;52.270;6.832;2024-03-23T01:08:32;20.73;;;5.13;;
47309;SDS011;33046;52.270;6.832;2024-03-23T01:10:39;22.90;;;5.07;;
47309;SDS011;33046;52.270;6.832;2024-03-23T01:12:45;14.80;;;4.85;;
47309;SDS011;33046;52.270;6.832;2024-03-23T01:14:51;24.42;;;6.50;;
47309;SDS011;33046;52.270;6.832;2024-03-23T01:16:57;16.00;;;4.45;;
47309;SDS011;33046;52.270;6.832;2024-03-23T01:19:03;23.90;;;6.57;;
47309;SDS011;33046;52.270;6.832;2024-03-23T01:21:09;16.15;;;5.88;;
47309;SDS011;33046;52.270;6.832;2024-03-23T01:23:14;17.30;;;6.20;;
47309;SDS011;33046;52.270;6.832;2024-03-23T01:25:21;25.25;;;7.38;;
47309;SDS011;33046;52.270;6.832;2024-03-23T01:27:28;19.95;;;8.05;;
47309;SDS011;33046;52.270;6.832;2024-03-23T01:29:34;24.40;;;6.35;;
47309;SDS011;33046;52.270;6.832;2024-03-23T01:31:40;28.35;;;7.20;;
47309;SDS011;33046;52.270;6.832;2024-03-23T01:33:46;23.77;;;7.07;;
47309;SDS011;33046;52.270;6.832;2024-03-23T01:35:51;17.17;;;4.53;;
47309;SDS011;33046;52.270;6.832;2024-03-23T01:37:57;23.02;;;6.70;;
47309;SDS011;33046;52.270;6.832;2024-03-23T01:40:04;22.42;;;4.72;;
47309;SDS011;33046;52.270;6.832;2024-03-23T01:42:10;20.15;;;7.40;;
47309;SDS011;33046;52.270;6.832;2024-03-23T01:44:18;20.13;;;4.22;;
47309;SDS011;33046;52.270;6.832;2024-03-23T01:46:24;24.48;;;5.22;;
47309;SDS011;33046;52.270;6.832;2024-03-23T01:48:30;18.35;;;4.55;;
47309;SDS011;33046;52.270;6.832;2024-03-23T01:50:36;16.27;;;5.05;;
47309;SDS011;33046;52.270;6.832;2024-03-23T01:52:42;29.30;;;6.90;;
47309;SDS011;33046;52.270;6.832;2024-03-23T01:54:48;22.08;;;5.30;;
47309;SDS011;33046;52.270;6.832;2024-03-23T01:56:54;14.85;;;3.90;;
47309;SDS011;33046;52.270;6.832;2024-03-23T01:59:01;21.33;;;4.78;;
47309;SDS011;33046;52.270;6.832;2024-03-23T02:01:08;16.33;;;4.70;;
47309;SDS011;33046;52.270;6.832;2024-03-23T02:03:23;15.30;;;4.07;;
47309;SDS011;33046;52.270;6.832;2024-03-23T02:05:30;15.50;;;4.18;;
47309;SDS011;33046;52.270;6.832;2024-03-23T02:07:36;21.92;;;5.55;;
47309;SDS011;33046;52.270;6.832;2024-03-23T02:09:43;19.83;;;7.00;;
47309;SDS011;33046;52.270;6.832;2024-03-23T02:11:49;18.38;;;5.82;;
47309;SDS011;33046;52.270;6.832;2024-03-23T02:13:55;15.43;;;4.35;;
47309;SDS011;33046;52.270;6.832;2024-03-23T02:16:01;17.27;;;4.35;;
47309;SDS011;33046;52.270;6.832;2024-03-23T02:18:08;18.02;;;5.18;;
47309;SDS011;33046;52.270;6.832;2024-03-23T02:20:14;16.10;;;3.55;;
47309;SDS011;33046;52.270;6.832;2024-03-23T02:22:20;16.42;;;3.70;;
47309;SDS011;33046;52.270;6.832;2024-03-23T02:24:28;20.13;;;3.80;;
47309;SDS011;33046;52.270;6.832;2024-03-23T02:26:34;18.83;;;4.88;;
47309;SDS011;33046;52.270;6.832;2024-03-23T02:28:40;21.73;;;6.57;;
47309;SDS011;33046;52.270;6.832;2024-03-23T02:30:46;16.55;;;3.95;;
47309;SDS011;33046;52.270;6.832;2024-03-23T02:32:52;16.52;;;4.70;;
47309;SDS011;33046;52.270;6.832;2024-03-23T02:34:58;18.92;;;5.68;;
47309;SDS011;33046;52.270;6.832;2024-03-23T02:37:09;21.33;;;4.82;;
47309;SDS011;33046;52.270;6.832;2024-03-23T02:39:16;15.23;;;5.53;;
47309;SDS011;33046;52.270;6.832;2024-03-23T02:41:23;20.80;;;5.18;;
47309;SDS011;33046;52.270;6.832;2024-03-23T02:43:29;17.17;;;5.07;;
47309;SDS011;33046;52.270;6.832;2024-03-23T02:45:35;23.35;;;5.20;;
47309;SDS011;33046;52.270;6.832;2024-03-23T02:47:41;24.90;;;4.60;;
47309;SDS011;33046;52.270;6.832;2024-03-23T02:49:46;16.23;;;5.35;;
47309;SDS011;33046;52.270;6.832;2024-03-23T02:51:52;12.68;;;4.75;;
47309;SDS011;33046;52.270;6.832;2024-03-23T02:53:58;14.50;;;4.50;;
47309;SDS011;33046;52.270;6.832;2024-03-23T02:56:05;15.48;;;3.70;;
47309;SDS011;33046;52.270;6.832;2024-03-23T02:58:12;17.77;;;5.13;;
47309;SDS011;33046;52.270;6.832;2024-03-23T03:00:18;21.52;;;4.50;;
47309;SDS011;33046;52.270;6.832;2024-03-23T03:02:24;20.90;;;6.55;;
47309;SDS011;33046;52.270;6.832;2024-03-23T03:04:30;22.23;;;6.13;;
47309;SDS011;33046;52.270;6.832;2024-03-23T03:06:36;19.60;;;5.15;;
47309;SDS011;33046;52.270;6.832;2024-03-23T03:08:42;18.70;;;5.18;;
47309;SDS011;33046;52.270;6.832;2024-03-23T03:10:48;17.25;;;5.00;;
47309;SDS011;33046;52.270;6.832;2024-03-23T03:12:54;18.35;;;6.35;;
47309;SDS011;33046;52.270;6.832;2024-03-23T03:15:01;17.60;;;5.47;;
47309;SDS011;33046;52.270;6.832;2024-03-23T03:17:07;22.50;;;6.50;;
47309;SDS011;33046;52.270;6.832;2024-03-23T03:19:13;35.63;;;8.95;;
47309;SDS011;33046;52.270;6.832;2024-03-23T03:21:19;17.52;;;5.15;;
47309;SDS011;33046;52.270;6.832;2024-03-23T03:23:25;18.20;;;4.82;;
47309;SDS011;33046;52.270;6.832;2024-03-23T03:25:30;18.02;;;5.43;;
47309;SDS011;33046;52.270;6.832;2024-03-23T03:27:36;21.88;;;6.47;;
47309;SDS011;33046;52.270;6.832;2024-03-23T03:29:42;21.67;;;6.55;;
47309;SDS011;33046;52.270;6.832;2024-03-23T03:31:50;20.15;;;7.30;;
47309;SDS011;33046;52.270;6.832;2024-03-23T03:33:55;18.33;;;6.07;;
47309;SDS011;33046;52.270;6.832;2024-03-23T03:36:02;24.58;;;7.63;;
47309;SDS011;33046;52.270;6.832;2024-03-23T03:38:08;18.35;;;5.78;;
47309;SDS011;33046;52.270;6.832;2024-03-23T03:40:14;25.65;;;7.50;;
47309;SDS011;33046;52.270;6.832;2024-03-23T03:42:20;15.65;;;6.30;;
47309;SDS011;33046;52.270;6.832;2024-03-23T03:44:26;23.05;;;7.57;;
47309;SDS011;33046;52.270;6.832;2024-03-23T03:46:32;17.67;;;6.65;;
47309;SDS011;33046;52.270;6.832;2024-03-23T03:48:39;19.70;;;8.32;;
47309;SDS011;33046;52.270;6.832;2024-03-23T03:50:45;19.17;;;7.35;;
47309;SDS011;33046;52.270;6.832;2024-03-23T03:52:51;20.27;;;6.82;;
47309;SDS011;33046;52.270;6.832;2024-03-23T03:54:59;22.98;;;8.27;;
47309;SDS011;33046;52.270;6.832;2024-03-23T03:57:07;17.63;;;6.80;;
47309;SDS011;33046;52.270;6.832;2024-03-23T03:59:13;22.20;;;8.90;;
47309;SDS011;33046;52.270;6.832;2024-03-23T04:01:18;17.67;;;7.85;;
47309;SDS011;33046;52.270;6.832;2024-03-23T04:03:24;18.33;;;7.38;;
47309;SDS011;33046;52.270;6.832;2024-03-23T04:05:32;23.10;;;7.70;;
47309;SDS011;33046;52.270;6.832;2024-03-23T04:07:38;16.73;;;6.05;;
47309;SDS011;33046;52.270;6.832;2024-03-23T04:09:43;22.60;;;8.18;;
47309;SDS011;33046;52.270;6.832;2024-03-23T04:11:49;22.80;;;7.70;;
47309;SDS011;33046;52.270;6.832;2024-03-23T04:13:55;22.50;;;7.57;;
47309;SDS011;33046;52.270;6.832;2024-03-23T04:16:01;15.40;;;6.30;;
47309;SDS011;33046;52.270;6.832;2024-03-23T04:18:07;20.10;;;7.50;;
47309;SDS011;33046;52.270;6.832;2024-03-23T04:20:16;16.30;;;7.65;;
47309;SDS011;33046;52.270;6.832;2024-03-23T04:22:23;18.75;;;8.85;;
47309;SDS011;33046;52.270;6.832;2024-03-23T04:24:29;17.73;;;7.85;;
47309;SDS011;33046;52.270;6.832;2024-03-23T04:26:40;19.75;;;6.93;;
47309;SDS011;33046;52.270;6.832;2024-03-23T04:28:46;17.95;;;7.32;;
47309;SDS011;33046;52.270;6.832;2024-03-23T04:30:52;40.53;;;10.48;;
47309;SDS011;33046;52.270;6.832;2024-03-23T04:32:58;20.73;;;7.72;;
47309;SDS011;33046;52.270;6.832;2024-03-23T04:35:04;22.00;;;10.40;;
47309;SDS011;33046;52.270;6.832;2024-03-23T04:37:10;24.02;;;8.15;;
47309;SDS011;33046;52.270;6.832;2024-03-23T04:39:18;22.63;;;7.25;;
47309;SDS011;33046;52.270;6.832;2024-03-23T04:41:23;15.15;;;6.65;;
47309;SDS011;33046;52.270;6.832;2024-03-23T04:43:29;19.23;;;8.10;;
47309;SDS011;33046;52.270;6.832;2024-03-23T04:45:35;13.25;;;6.57;;
47309;SDS011;33046;52.270;6.832;2024-03-23T04:47:41;21.73;;;8.93;;
47309;SDS011;33046;52.270;6.832;2024-03-23T04:49:47;21.58;;;8.82;;
47309;SDS011;33046;52.270;6.832;2024-03-23T04:51:54;22.80;;;7.88;;
47309;SDS011;33046;52.270;6.832;2024-03-23T04:54:00;21.38;;;8.00;;
47309;SDS011;33046;52.270;6.832;2024-03-23T04:56:08;22.52;;;9.35;;
47309;SDS011;33046;52.270;6.832;2024-03-23T04:58:13;22.45;;;9.32;;
47309;SDS011;33046;52.270;6.832;2024-03-23T05:00:19;16.67;;;8.35;;
47309;SDS011;33046;52.270;6.832;2024-03-23T05:02:25;25.10;;;9.77;;
47309;SDS011;33046;52.270;6.832;2024-03-23T05:04:31;18.58;;;8.40;;
47309;SDS011;33046;52.270;6.832;2024-03-23T05:06:37;21.65;;;8.52;;
47309;SDS011;33046;52.270;6.832;2024-03-23T05:08:43;19.90;;;8.75;;
47309;SDS011;33046;52.270;6.832;2024-03-23T05:10:49;21.85;;;9.38;;
47309;SDS011;33046;52.270;6.832;2024-03-23T05:12:56;19.80;;;10.18;;
47309;SDS011;33046;52.270;6.832;2024-03-23T05:15:02;17.13;;;9.63;;
47309;SDS011;33046;52.270;6.832;2024-03-23T05:17:08;17.23;;;9.80;;
47309;SDS011;33046;52.270;6.832;2024-03-23T05:19:14;17.48;;;8.70;;
47309;SDS011;33046;52.270;6.832;2024-03-23T05:21:20;21.13;;;10.95;;
47309;SDS011;33046;52.270;6.832;2024-03-23T05:23:27;17.65;;;8.48;;
47309;SDS011;33046;52.270;6.832;2024-03-23T05:25:33;16.27;;;7.90;;
47309;SDS011;33046;52.270;6.832;2024-03-23T05:27:39;21.08;;;9.82;;
47309;SDS011;33046;52.270;6.832;2024-03-23T05:29:46;21.33;;;8.60;;
47309;SDS011;33046;52.270;6.832;2024-03-23T05:31:52;21.08;;;9.18;;
47309;SDS011;33046;52.270;6.832;2024-03-23T05:33:58;19.48;;;7.95;;
47309;SDS011;33046;52.270;6.832;2024-03-23T05:36:04;31.95;;;10.60;;
47309;SDS011;33046;52.270;6.832;2024-03-23T05:38:10;18.48;;;9.57;;
47309;SDS011;33046;52.270;6.832;2024-03-23T05:40:16;19.75;;;8.18;;
47309;SDS011;33046;52.270;6.832;2024-03-23T05:42:22;26.55;;;8.98;;
47309;SDS011;33046;52.270;6.832;2024-03-23T05:44:28;15.68;;;8.65;;
47309;SDS011;33046;52.270;6.832;2024-03-23T05:46:36;17.90;;;8.80;;
47309;SDS011;33046;52.270;6.832;2024-03-23T05:48:41;16.38;;;8.70;;
47309;SDS011;33046;52.270;6.832;2024-03-23T05:50:47;19.25;;;9.43;;
47309;SDS011;33046;52.270;6.832;2024-03-23T05:52:54;19.88;;;8.25;;
47309;SDS011;33046;52.270;6.832;2024-03-23T05:54:59;18.92;;;8.23;;
47309;SDS011;33046;52.270;6.832;2024-03-23T05:57:05;15.80;;;7.57;;
47309;SDS011;33046;52.270;6.832;2024-03-23T05:59:11;21.10;;;8.57;;
47309;SDS011;33046;52.270;6.832;2024-03-23T06:01:17;15.38;;;8.00;;
47309;SDS011;33046;52.270;6.832;2024-03-23T06:03:24;18.50;;;8.80;;
47309;SDS011;33046;52.270;6.832;2024-03-23T06:05:31;15.10;;;8.43;;
47309;SDS011;33046;52.270;6.832;2024-03-23T06:07:36;20.58;;;10.23;;
47309;SDS011;33046;52.270;6.832;2024-03-23T06:09:43;16.42;;;8.48;;
47309;SDS011;33046;52.270;6.832;2024-03-23T06:11:48;26.10;;;9.32;;
47309;SDS011;33046;52.270;6.832;2024-03-23T06:13:55;20.02;;;8.68;;
47309;SDS011;33046;52.270;6.832;2024-03-23T06:16:01;18.10;;;8.50;;
47309;SDS011;33046;52.270;6.832;2024-03-23T06:18:07;21.33;;;7.93;;
47309;SDS011;33046;52.270;6.832;2024-03-23T06:20:15;16.77;;;7.97;;
47309;SDS011;33046;52.270;6.832;2024-03-23T06:22:21;19.65;;;9.10;;
47309;SDS011;33046;52.270;6.832;2024-03-23T06:24:26;20.20;;;8.68;;
47309;SDS011;33046;52.270;6.832;2024-03-23T06:26:34;17.45;;;9.48;;
47309;SDS011;33046;52.270;6.832;2024-03-23T06:28:40;14.93;;;8.52;;
47309;SDS011;33046;52.270;6.832;2024-03-23T06:30:45;16.52;;;7.28;;
47309;SDS011;33046;52.270;6.832;2024-03-23T06:32:51;20.20;;;8.07;;
47309;SDS011;33046;52.270;6.832;2024-03-23T06:34:57;18.95;;;8.70;;
47309;SDS011;33046;52.270;6.832;2024-03-23T06:37:05;24.50;;;11.02;;
47309;SDS011;33046;52.270;6.832;2024-03-23T06:39:11;18.60;;;8.25;;
47309;SDS011;33046;52.270;6.832;2024-03-23T06:41:16;15.55;;;8.27;;
47309;SDS011;33046;52.270;6.832;2024-03-23T06:43:22;17.33;;;9.40;;
47309;SDS011;33046;52.270;6.832;2024-03-23T06:45:28;16.05;;;7.20;;
47309;SDS011;33046;52.270;6.832;2024-03-23T06:47:34;20.45;;;9.77;;
47309;SDS011;33046;52.270;6.832;2024-03-23T06:49:40;19.70;;;7.70;;
47309;SDS011;33046;52.270;6.832;2024-03-23T06:51:46;16.17;;;7.63;;
47309;SDS011;33046;52.270;6.832;2024-03-23T06:53:53;17.60;;;7.90;;
47309;SDS011;33046;52.270;6.832;2024-03-23T06:55:59;21.55;;;10.13;;
47309;SDS011;33046;52.270;6.832;2024-03-23T06:58:05;14.57;;;6.10;;
47309;SDS011;33046;52.270;6.832;2024-03-23T07:00:11;13.65;;;5.75;;
47309;SDS011;33046;52.270;6.832;2024-03-23T07:02:18;15.80;;;7.47;;
47309;SDS011;33046;52.270;6.832;2024-03-23T07:04:24;14.60;;;6.45;;
47309;SDS011;33046;52.270;6.832;2024-03-23T07:06:30;15.60;;;7.03;;
47309;SDS011;33046;52.270;6.832;2024-03-23T07:08:36;16.75;;;6.30;;
47309;SDS011;33046;52.270;6.832;2024-03-23T07:10:43;17.75;;;7.03;;
47309;SDS011;33046;52.270;6.832;2024-03-23T07:12:49;18.48;;;6.05;;
47309;SDS011;33046;52.270;6.832;2024-03-23T07:14:55;14.65;;;5.55;;
47309;SDS011;33046;52.270;6.832;2024-03-23T07:17:01;13.90;;;5.63;;
47309;SDS011;33046;52.270;6.832;2024-03-23T07:19:07;14.20;;;5.10;;
47309;SDS011;33046;52.270;6.832;2024-03-23T07:21:14;15.95;;;6.03;;
47309;SDS011;33046;52.270;6.832;2024-03-23T07:23:20;17.30;;;5.57;;
47309;SDS011;33046;52.270;6.832;2024-03-23T07:25:26;15.02;;;5.18;;
47309;SDS011;33046;52.270;6.832;2024-03-23T07:27:33;11.32;;;4.15;;
47309;SDS011;33046;52.270;6.832;2024-03-23T07:29:39;7.60;;;2.67;;
47309;SDS011;33046;52.270;6.832;2024-03-23T07:31:45;13.80;;;3.90;;
47309;SDS011;33046;52.270;6.832;2024-03-23T07:33:51;6.70;;;2.70;;
47309;SDS011;33046;52.270;6.832;2024-03-23T07:35:57;6.82;;;1.38;;
47309;SDS011;33046;52.270;6.832;2024-03-23T07:38:03;5.00;;;1.10;;
47309;SDS011;33046;52.270;6.832;2024-03-23T07:40:09;4.45;;;1.20;;
47309;SDS011;33046;52.270;6.832;2024-03-23T07:42:16;9.70;;;2.85;;
47309;SDS011;33046;52.270;6.832;2024-03-23T07:44:23;5.82;;;2.42;;
47309;SDS011;33046;52.270;6.832;2024-03-23T07:46:29;4.38;;;1.33;;
47309;SDS011;33046;52.270;6.832;2024-03-23T07:48:35;4.93;;;1.20;;
47309;SDS011;33046;52.270;6.832;2024-03-23T07:50:41;7.78;;;1.60;;
47309;SDS011;33046;52.270;6.832;2024-03-23T07:52:47;4.72;;;1.63;;
47309;SDS011;33046;52.270;6.832;2024-03-23T07:54:52;8.30;;;1.95;;
47309;SDS011;33046;52.270;6.832;2024-03-23T07:56:58;7.13;;;2.05;;
47309;SDS011;33046;52.270;6.832;2024-03-23T07:59:04;8.82;;;2.20;;
47309;SDS011;33046;52.270;6.832;2024-03-23T08:01:12;10.07;;;2.67;;
47309;SDS011;33046;52.270;6.832;2024-03-23T08:03:19;7.10;;;2.50;;
47309;SDS011;33046;52.270;6.832;2024-03-23T08:05:25;7.88;;;1.63;;
47309;SDS011;33046;52.270;6.832;2024-03-23T08:07:31;5.60;;;1.45;;
47309;SDS011;33046;52.270;6.832;2024-03-23T08:09:37;9.07;;;3.08;;
47309;SDS011;33046;52.270;6.832;2024-03-23T08:11:43;7.82;;;2.65;;
47309;SDS011;33046;52.270;6.832;2024-03-23T08:13:49;6.80;;;2.13;;
47309;SDS011;33046;52.270;6.832;2024-03-23T08:15:56;4.38;;;1.90;;
47309;SDS011;33046;52.270;6.832;2024-03-23T08:18:04;9.27;;;2.50;;
47309;SDS011;33046;52.270;6.832;2024-03-23T08:20:10;6.15;;;2.40;;
47309;SDS011;33046;52.270;6.832;2024-03-23T08:22:17;12.23;;;2.80;;
47309;SDS011;33046;52.270;6.832;2024-03-23T08:24:22;12.23;;;3.10;;
47309;SDS011;33046;52.270;6.832;2024-03-23T08:26:28;7.97;;;2.15;;
47309;SDS011;33046;52.270;6.832;2024-03-23T08:28:34;11.05;;;3.67;;
47309;SDS011;33046;52.270;6.832;2024-03-23T08:30:41;8.07;;;2.85;;
47309;SDS011;33046;52.270;6.832;2024-03-23T08:32:47;4.85;;;2.78;;
47309;SDS011;33046;52.270;6.832;2024-03-23T08:34:54;13.55;;;2.65;;
47309;SDS011;33046;52.270;6.832;2024-03-23T08:37:00;9.00;;;2.17;;
47309;SDS011;33046;52.270;6.832;2024-03-23T08:39:06;7.00;;;1.98;;
47309;SDS011;33046;52.270;6.832;2024-03-23T08:41:12;9.70;;;2.97;;
47309;SDS011;33046;52.270;6.832;2024-03-23T08:43:17;9.07;;;2.00;;
47309;SDS011;33046;52.270;6.832;2024-03-23T08:45:24;8.05;;;1.90;;
47309;SDS011;33046;52.270;6.832;2024-03-23T08:47:30;7.18;;;1.85;;
47309;SDS011;33046;52.270;6.832;2024-03-23T08:49:39;8.05;;;1.80;;
47309;SDS011;33046;52.270;6.832;2024-03-23T08:51:46;8.85;;;2.17;;
47309;SDS011;33046;52.270;6.832;2024-03-23T08:53:52;7.10;;;1.98;;
47309;SDS011;33046;52.270;6.832;2024-03-23T08:55:58;7.13;;;1.80;;
47309;SDS011;33046;52.270;6.832;2024-03-23T08:58:05;8.32;;;2.05;;
47309;SDS011;33046;52.270;6.832;2024-03-23T09:00:11;5.90;;;1.58;;
47309;SDS011;33046;52.270;6.832;2024-03-23T09:02:18;11.82;;;2.88;;
47309;SDS011;33046;52.270;6.832;2024-03-23T09:04:24;7.30;;;1.63;;
47309;SDS011;33046;52.270;6.832;2024-03-23T09:06:30;4.57;;;1.65;;
47309;SDS011;33046;52.270;6.832;2024-03-23T09:08:37;13.32;;;3.40;;
47309;SDS011;33046;52.270;6.832;2024-03-23T09:10:43;12.27;;;2.67;;
47309;SDS011;33046;52.270;6.832;2024-03-23T09:12:49;7.88;;;1.70;;
47309;SDS011;33046;52.270;6.832;2024-03-23T09:14:55;9.02;;;2.55;;
47309;SDS011;33046;52.270;6.832;2024-03-23T09:17:01;5.03;;;1.30;;
47309;SDS011;33046;52.270;6.832;2024-03-23T09:19:07;6.35;;;1.63;;
47309;SDS011;33046;52.270;6.832;2024-03-23T09:21:13;8.30;;;1.38;;
47309;SDS011;33046;52.270;6.832;2024-03-23T09:23:19;8.23;;;2.20;;
47309;SDS011;33046;52.270;6.832;2024-03-23T09:25:26;7.97;;;2.22;;
47309;SDS011;33046;52.270;6.832;2024-03-23T09:27:32;6.68;;;1.90;;
47309;SDS011;33046;52.270;6.832;2024-03-23T09:29:38;7.20;;;1.23;;
47309;SDS011;33046;52.270;6.832;2024-03-23T09:31:44;13.85;;;2.85;;
47309;SDS011;33046;52.270;6.832;2024-03-23T09:33:50;7.85;;;2.10;;
47309;SDS011;33046;52.270;6.832;2024-03-23T09:35:56;6.82;;;1.60;;
47309;SDS011;33046;52.270;6.832;2024-03-23T09:38:02;5.18;;;1.38;;
47309;SDS011;33046;52.270;6.832;2024-03-23T09:40:09;3.47;;;1.23;;
47309;SDS011;33046;52.270;6.832;2024-03-23T09:42:17;6.57;;;1.30;;
47309;SDS011;33046;52.270;6.832;2024-03-23T09:44:24;6.68;;;1.40;;
47309;SDS011;33046;52.270;6.832;2024-03-23T09:46:31;7.05;;;1.25;;
47309;SDS011;33046;52.270;6.832;2024-03-23T09:48:37;5.45;;;1.60;;
47309;SDS011;33046;52.270;6.832;2024-03-23T09:50:43;6.32;;;1.20;;
47309;SDS011;33046;52.270;6.832;2024-03-23T09:52:50;4.30;;;1.15;;
47309;SDS011;33046;52.270;6.832;2024-03-23T09:54:55;6.72;;;1.50;;
47309;SDS011;33046;52.270;6.832;2024-03-23T09:57:01;12.57;;;2.50;;
47309;SDS011;33046;52.270;6.832;2024-03-23T09:59:09;4.45;;;1.00;;
47309;SDS011;33046;52.270;6.832;2024-03-23T10:01:15;5.38;;;1.85;;
47309;SDS011;33046;52.270;6.832;2024-03-23T10:03:21;6.07;;;1.85;;
47309;SDS011;33046;52.270;6.832;2024-03-23T10:05:28;5.57;;;2.08;;
47309;SDS011;33046;52.270;6.832;2024-03-23T10:07:34;13.18;;;3.28;;
47309;SDS011;33046;52.270;6.832;2024-03-23T10:09:40;9.70;;;2.75;;
47309;SDS011;33046;52.270;6.832;2024-03-23T10:11:46;8.73;;;2.30;;
47309;SDS011;33046;52.270;6.832;2024-03-23T10:13:52;3.42;;;1.02;;
47309;SDS011;33046;52.270;6.832;2024-03-23T10:15:59;7.68;;;1.40;;
47309;SDS011;33046;52.270;6.832;2024-03-23T10:18:09;6.22;;;1.88;;
47309;SDS011;33046;52.270;6.832;2024-03-23T10:20:23;7.35;;;1.33;;
47309;SDS011;33046;52.270;6.832;2024-03-23T10:22:29;4.95;;;1.00;;
47309;SDS011;33046;52.270;6.832;2024-03-23T10:26:51;5.07;;;1.55;;
47309;SDS011;33046;52.270;6.832;2024-03-23T10:31:09;5.53;;;1.33;;
47309;SDS011;33046;52.270;6.832;2024-03-23T10:33:17;4.18;;;0.70;;
47309;SDS011;33046;52.270;6.832;2024-03-23T10:35:23;7.03;;;2.05;;
47309;SDS011;33046;52.270;6.832;2024-03-23T10:37:29;4.85;;;0.90;;
47309;SDS011;33046;52.270;6.832;2024-03-23T10:39:36;8.27;;;1.00;;
47309;SDS011;33046;52.270;6.832;2024-03-23T10:41:43;5.68;;;0.90;;
47309;SDS011;33046;52.270;6.832;2024-03-23T10:43:51;6.00;;;2.25;;
47309;SDS011;33046;52.270;6.832;2024-03-23T10:45:57;4.35;;;1.15;;
47309;SDS011;33046;52.270;6.832;2024-03-23T10:48:04;4.28;;;0.90;;
47309;SDS011;33046;52.270;6.832;2024-03-23T10:50:11;5.57;;;1.67;;
47309;SDS011;33046;52.270;6.832;2024-03-23T10:52:16;4.35;;;0.90;;
47309;SDS011;33046;52.270;6.832;2024-03-23T10:54:23;7.40;;;1.25;;
47309;SDS011;33046;52.270;6.832;2024-03-23T10:56:29;9.40;;;1.60;;
47309;SDS011;33046;52.270;6.832;2024-03-23T10:58:38;5.22;;;1.10;;
47309;SDS011;33046;52.270;6.832;2024-03-23T11:00:46;5.60;;;1.15;;
47309;SDS011;33046;52.270;6.832;2024-03-23T11:02:53;6.93;;;0.80;;
47309;SDS011;33046;52.270;6.832;2024-03-23T11:05:00;3.38;;;0.68;;
47309;SDS011;33046;52.270;6.832;2024-03-23T11:07:28;5.75;;;0.70;;
47309;SDS011;33046;52.270;6.832;2024-03-23T11:09:43;2.58;;;0.40;;
47309;SDS011;33046;52.270;6.832;2024-03-23T11:11:49;4.90;;;0.75;;
47309;SDS011;33046;52.270;6.832;2024-03-23T11:13:55;2.05;;;0.43;;
47309;SDS011;33046;52.270;6.832;2024-03-23T11:16:08;4.15;;;0.50;;
47309;SDS011;33046;52.270;6.832;2024-03-23T11:18:20;4.20;;;0.68;;
47309;SDS011;33046;52.270;6.832;2024-03-23T11:20:32;4.40;;;0.55;;
47309;SDS011;33046;52.270;6.832;2024-03-23T11:22:39;1.95;;;0.60;;
47309;SDS011;33046;52.270;6.832;2024-03-23T11:24:49;3.38;;;0.65;;
47309;SDS011;33046;52.270;6.832;2024-03-23T11:26:55;4.57;;;1.40;;
47309;SDS011;33046;52.270;6.832;2024-03-23T11:29:08;6.38;;;0.70;;
47309;SDS011;33046;52.270;6.832;2024-03-23T11:31:14;3.13;;;0.57;;
47309;SDS011;33046;52.270;6.832;2024-03-23T11:33:20;2.60;;;0.70;;
47309;SDS011;33046;52.270;6.832;2024-03-23T11:35:27;2.88;;;0.68;;
47309;SDS011;33046;52.270;6.832;2024-03-23T11:37:34;2.28;;;0.60;;
47309;SDS011;33046;52.270;6.832;2024-03-23T11:39:41;2.72;;;0.40;;
47309;SDS011;33046;52.270;6.832;2024-03-23T11:41:47;2.38;;;0.50;;
47309;SDS011;33046;52.270;6.832;2024-03-23T11:43:57;2.78;;;0.60;;
47309;SDS011;33046;52.270;6.832;2024-03-23T11:46:03;1.40;;;0.40;;
47309;SDS011;33046;52.270;6.832;2024-03-23T11:48:09;3.17;;;0.73;;
47309;SDS011;33046;52.270;6.832;2024-03-23T11:50:19;3.67;;;0.60;;
47309;SDS011;33046;52.270;6.832;2024-03-23T11:52:25;4.03;;;0.70;;
47309;SDS011;33046;52.270;6.832;2024-03-23T11:54:33;5.60;;;1.73;;
47309;SDS011;33046;52.270;6.832;2024-03-23T11:56:39;3.38;;;0.70;;
47309;SDS011;33046;52.270;6.832;2024-03-23T11:58:45;3.75;;;0.70;;
47309;SDS011;33046;52.270;6.832;2024-03-23T12:00:51;3.67;;;0.82;;
47309;SDS011;33046;52.270;6.832;2024-03-23T12:02:59;4.47;;;0.88;;
47309;SDS011;33046;52.270;6.832;2024-03-23T12:05:13;3.15;;;0.70;;
47309;SDS011;33046;52.270;6.832;2024-03-23T12:07:20;5.90;;;0.85;;
47309;SDS011;33046;52.270;6.832;2024-03-23T12:09:26;4.43;;;0.75;;
47309;SDS011;33046;52.270;6.832;2024-03-23T12:11:33;5.85;;;0.93;;
47309;SDS011;33046;52.270;6.832;2024-03-23T12:13:39;2.90;;;0.75;;
47309;SDS011;33046;52.270;6.832;2024-03-23T12:15:46;2.72;;;1.00;;
47309;SDS011;33046;52.270;6.832;2024-03-23T12:18:05;2.80;;;1.00;;
47309;SDS011;33046;52.270;6.832;2024-03-23T12:20:11;5.85;;;0.90;;
47309;SDS011;33046;52.270;6.832;2024-03-23T12:22:20;8.05;;;1.45;;
47309;SDS011;33046;52.270;6.832;2024-03-23T12:24:26;4.55;;;0.80;;
47309;SDS011;33046;52.270;6.832;2024-03-23T12:26:33;3.50;;;1.77;;
47309;SDS011;33046;52.270;6.832;2024-03-23T12:28:39;7.47;;;2.65;;
47309;SDS011;33046;52.270;6.832;2024-03-23T12:30:45;3.42;;;1.40;;
47309;SDS011;33046;52.270;6.832;2024-03-23T12:32:51;6.05;;;0.90;;
47309;SDS011;33046;52.270;6.832;2024-03-23T12:34:57;3.40;;;0.60;;
47309;SDS011;33046;52.270;6.832;2024-03-23T12:37:03;2.53;;;0.73;;
47309;SDS011;33046;52.270;6.832;2024-03-23T12:39:09;6.50;;;1.13;;
47309;SDS011;33046;52.270;6.832;2024-03-23T12:41:15;5.90;;;0.80;;
47309;SDS011;33046;52.270;6.832;2024-03-23T12:43:22;7.35;;;1.58;;
47309;SDS011;33046;52.270;6.832;2024-03-23T12:45:28;4.93;;;1.13;;
47309;SDS011;33046;52.270;6.832;2024-03-23T12:47:34;4.03;;;0.80;;
47309;SDS011;33046;52.270;6.832;2024-03-23T12:49:40;5.07;;;0.93;;
47309;SDS011;33046;52.270;6.832;2024-03-23T12:51:48;5.75;;;1.50;;
47309;SDS011;33046;52.270;6.832;2024-03-23T12:56:05;2.17;;;0.57;;
47309;SDS011;33046;52.270;6.832;2024-03-23T12:58:11;3.00;;;0.60;;
47309;SDS011;33046;52.270;6.832;2024-03-23T13:00:19;3.33;;;0.60;;
47309;SDS011;33046;52.270;6.832;2024-03-23T13:02:26;2.72;;;0.60;;
47309;SDS011;33046;52.270;6.832;2024-03-23T13:04:32;3.50;;;0.50;;
47309;SDS011;33046;52.270;6.832;2024-03-23T13:06:38;5.25;;;0.90;;
47309;SDS011;33046;52.270;6.832;2024-03-23T13:08:44;4.65;;;0.75;;
47309;SDS011;33046;52.270;6.832;2024-03-23T13:10:51;2.72;;;1.05;;
47309;SDS011;33046;52.270;6.832;2024-03-23T13:12:57;3.30;;;0.70;;
47309;SDS011;33046;52.270;6.832;2024-03-23T13:15:03;2.15;;;0.70;;
47309;SDS011;33046;52.270;6.832;2024-03-23T13:17:12;6.30;;;1.35;;
47309;SDS011;33046;52.270;6.832;2024-03-23T13:19:18;3.38;;;0.80;;
47309;SDS011;33046;52.270;6.832;2024-03-23T13:21:26;7.22;;;1.80;;
47309;SDS011;33046;52.270;6.832;2024-03-23T13:23:32;6.60;;;1.58;;
47309;SDS011;33046;52.270;6.832;2024-03-23T13:25:38;4.78;;;0.88;;
47309;SDS011;33046;52.270;6.832;2024-03-23T13:27:43;4.90;;;0.80;;
47309;SDS011;33046;52.270;6.832;2024-03-23T13:29:49;3.40;;;0.68;;
47309;SDS011;33046;52.270;6.832;2024-03-23T13:31:55;4.90;;;1.27;;
47309;SDS011;33046;52.270;6.832;2024-03-23T13:34:03;7.18;;;1.42;;
47309;SDS011;33046;52.270;6.832;2024-03-23T13:36:08;4.50;;;0.90;;